createdAt,value
2022-12-01T00:01:57.025Z,-1.09
2022-12-01T00:04:23.527Z,-1.11
2022-12-01T00:06:49.945Z,-1.14
2022-12-01T00:09:35.131Z,-1.22
2022-12-01T00:12:01.567Z,-1.25
2022-12-01T00:14:28.014Z,-1.29
2022-12-01T00:16:54.473Z,-1.32
2022-12-01T00:19:24.169Z,-1.29
2022-12-01T00:21:50.589Z,-1.26
2022-12-01T00:24:16.993Z,-1.29
2022-12-01T00:26:43.404Z,-1.30
2022-12-01T00:29:09.874Z,-1.31
2022-12-01T00:31:36.446Z,-1.32
2022-12-01T00:34:08.101Z,-1.35
2022-12-01T00:36:37.388Z,-1.38
2022-12-01T00:39:03.821Z,-1.37
2022-12-01T00:41:30.233Z,-1.36
2022-12-01T00:43:56.642Z,-1.33
2022-12-01T00:46:23.154Z,-1.28
2022-12-01T00:48:49.672Z,-1.16
2022-12-01T00:51:16.049Z,-1.11
2022-12-01T00:53:42.645Z,-1.04
2022-12-01T00:56:09.209Z,-1.07
2022-12-01T00:58:35.714Z,-1.08
2022-12-01T01:01:02.347Z,-1.08
2022-12-01T01:03:28.838Z,-1.10
2022-12-01T01:05:55.439Z,-1.04
2022-12-01T01:08:22.030Z,-1.05
2022-12-01T01:10:48.482Z,-0.98
2022-12-01T01:13:15.146Z,-1.07
2022-12-01T01:15:41.557Z,-1.03
2022-12-01T01:18:09.668Z,-1.09
2022-12-01T01:20:36.309Z,-1.11
2022-12-01T01:23:02.943Z,-1.12
2022-12-01T01:25:29.354Z,-1.20
2022-12-01T01:27:55.766Z,-1.24
2022-12-01T01:30:22.487Z,-1.25
2022-12-01T01:32:48.982Z,-1.24
2022-12-01T01:35:15.614Z,-1.26
2022-12-01T01:37:42.075Z,-1.27
2022-12-01T01:40:08.993Z,-1.27
2022-12-01T01:42:35.400Z,-1.28
2022-12-01T01:45:01.948Z,-1.28
2022-12-01T01:47:30.809Z,-1.30
2022-12-01T01:49:57.716Z,-1.32
2022-12-01T01:52:24.320Z,-1.33
2022-12-01T01:54:51.450Z,-1.36
2022-12-01T01:57:29.055Z,-1.40
2022-12-01T01:59:57.256Z,-1.42
2022-12-01T02:02:25.676Z,-1.42
2022-12-01T02:04:54.838Z,-1.42
2022-12-01T02:07:21.351Z,-1.42
2022-12-01T02:09:48.009Z,-1.44
2022-12-01T02:12:30.256Z,-1.45
2022-12-01T02:15:12.073Z,-1.48
2022-12-01T02:17:57.216Z,-1.47
2022-12-01T02:20:42.199Z,-1.45
2022-12-01T02:23:20.792Z,-1.42
2022-12-01T02:25:48.748Z,-1.40
2022-12-01T02:28:15.206Z,-1.38
2022-12-01T02:30:47.772Z,-1.38
2022-12-01T02:33:40.684Z,-1.37
2022-12-01T02:36:15.086Z,-1.39
2022-12-01T02:38:44.618Z,-1.38
2022-12-01T02:41:12.720Z,-1.36
2022-12-01T02:43:45.471Z,-1.35
2022-12-01T02:46:12.972Z,-1.35
2022-12-01T02:48:40.101Z,-1.35
2022-12-01T02:51:07.793Z,-1.33
2022-12-01T02:53:34.244Z,-1.33
2022-12-01T02:56:01.031Z,-1.26
2022-12-01T02:58:27.456Z,-1.30
2022-12-01T03:01:20.245Z,-1.30
2022-12-01T03:03:49.748Z,-1.35
2022-12-01T03:06:20.516Z,-1.36
2022-12-01T03:08:46.974Z,-1.38
2022-12-01T03:11:27.197Z,-1.39
2022-12-01T03:14:08.264Z,-1.39
2022-12-01T03:16:40.745Z,-1.36
2022-12-01T03:19:10.756Z,-1.31
2022-12-01T03:21:44.831Z,-1.27
2022-12-01T03:24:13.870Z,-1.26
2022-12-01T03:26:41.287Z,-1.23
2022-12-01T03:29:08.783Z,-1.24
2022-12-01T03:31:37.755Z,-1.24
2022-12-01T03:34:05.315Z,-1.21
2022-12-01T03:36:39.834Z,-1.22
2022-12-01T03:39:11.324Z,-1.23
2022-12-01T03:41:38.951Z,-1.27
2022-12-01T03:44:12.600Z,-1.31
2022-12-01T03:46:44.805Z,-1.36
2022-12-01T03:49:11.342Z,-1.39
2022-12-01T03:51:44.102Z,-1.46
2022-12-01T03:54:13.171Z,-1.50
2022-12-01T03:56:59.730Z,-1.51
2022-12-01T03:59:26.187Z,-1.50
2022-12-01T04:01:53.093Z,-1.46
2022-12-01T04:04:19.756Z,-1.33
2022-12-01T04:06:46.909Z,-1.35
2022-12-01T04:09:13.648Z,-1.41
2022-12-01T04:11:58.927Z,-1.35
2022-12-01T04:14:25.643Z,-1.35
2022-12-01T04:16:52.109Z,-1.33
2022-12-01T04:19:18.629Z,-1.34
2022-12-01T04:21:45.104Z,-1.40
2022-12-01T04:24:12.062Z,-1.41
2022-12-01T04:26:38.556Z,-1.38
2022-12-01T04:29:06.080Z,-1.35
2022-12-01T04:31:32.543Z,-1.36
2022-12-01T04:33:59.370Z,-1.39
2022-12-01T04:36:25.919Z,-1.44
2022-12-01T04:38:52.335Z,-1.47
2022-12-01T04:41:18.967Z,-1.43
2022-12-01T04:43:45.595Z,-1.47
2022-12-01T04:46:12.099Z,-1.50
2022-12-01T04:48:38.735Z,-1.47
2022-12-01T04:51:05.994Z,-1.47
2022-12-01T04:53:32.411Z,-1.45
2022-12-01T04:56:02.046Z,-1.39
2022-12-01T04:58:30.793Z,-1.39
2022-12-01T05:01:11.177Z,-1.38
2022-12-01T05:03:38.359Z,-1.36
2022-12-01T05:06:05.868Z,-1.38
2022-12-01T05:08:32.432Z,-1.39
2022-12-01T05:10:58.877Z,-1.38
2022-12-01T05:13:25.281Z,-1.39
2022-12-01T05:15:51.851Z,-1.38
2022-12-01T05:18:18.411Z,-1.37
2022-12-01T05:20:57.070Z,-1.36
2022-12-01T05:23:27.185Z,-1.37
2022-12-01T05:25:53.684Z,-1.37
2022-12-01T05:28:20.314Z,-1.36
2022-12-01T05:30:46.780Z,-1.32
2022-12-01T05:33:13.200Z,-1.35
2022-12-01T05:35:39.639Z,-1.39
2022-12-01T05:38:18.577Z,-1.38
2022-12-01T05:40:54.657Z,-1.59
2022-12-01T05:43:26.915Z,-1.35
2022-12-01T05:45:55.617Z,-1.30
2022-12-01T05:48:22.452Z,-1.28
2022-12-01T05:50:49.160Z,-1.25
2022-12-01T05:53:15.703Z,-1.30
2022-12-01T05:55:42.284Z,-1.30
2022-12-01T05:58:08.857Z,-1.26
2022-12-01T06:00:39.623Z,-1.27
2022-12-01T06:03:10.525Z,-1.28
2022-12-01T06:05:37.046Z,-1.25
2022-12-01T06:08:03.632Z,-1.29
2022-12-01T06:10:30.073Z,-1.35
2022-12-01T06:12:56.576Z,-1.35
2022-12-01T06:15:22.998Z,-1.36
2022-12-01T06:17:49.466Z,-1.40
2022-12-01T06:20:16.192Z,-1.43
2022-12-01T06:22:42.766Z,-1.43
2022-12-01T06:25:09.657Z,-1.42
2022-12-01T06:27:36.168Z,-1.39
2022-12-01T06:30:02.945Z,-1.37
2022-12-01T06:32:29.484Z,-1.30
2022-12-01T06:34:55.977Z,-1.33
2022-12-01T06:37:22.539Z,-1.33
2022-12-01T06:39:49.117Z,-1.29
2022-12-01T06:42:15.690Z,-1.33
2022-12-01T06:44:42.298Z,-1.28
2022-12-01T06:47:08.949Z,-1.30
2022-12-01T06:49:35.849Z,-1.36
2022-12-01T06:52:02.363Z,-1.45
2022-12-01T06:54:28.775Z,-1.49
2022-12-01T06:56:55.220Z,-1.57
2022-12-01T06:59:22.079Z,-1.56
2022-12-01T07:01:48.731Z,-1.55
2022-12-01T07:04:15.519Z,-1.47
2022-12-01T07:06:41.925Z,-1.51
2022-12-01T07:09:08.337Z,-1.47
2022-12-01T07:11:36.550Z,-1.44
2022-12-01T07:14:03.616Z,-1.48
2022-12-01T07:16:30.121Z,-1.46
2022-12-01T07:18:56.622Z,-1.44
2022-12-01T07:21:23.910Z,-1.48
2022-12-01T07:23:50.397Z,-1.46
2022-12-01T07:26:17.567Z,-1.45
2022-12-01T07:28:44.093Z,-1.80
2022-12-01T07:31:11.742Z,-1.47
2022-12-01T07:33:38.497Z,-1.45
2022-12-01T07:36:05.358Z,-1.41
2022-12-01T07:38:32.236Z,-1.39
2022-12-01T07:41:02.441Z,-1.28
2022-12-01T07:43:29.606Z,-1.12
2022-12-01T07:45:56.116Z,-1.11
2022-12-01T07:48:22.781Z,-1.19
2022-12-01T07:50:49.183Z,-1.21
2022-12-01T07:53:15.533Z,-1.25
2022-12-01T07:55:47.622Z,-1.29
2022-12-01T07:58:14.215Z,-1.30
2022-12-01T08:00:40.638Z,-1.27
2022-12-01T08:03:07.289Z,-1.22
2022-12-01T08:05:33.914Z,-1.23
2022-12-01T08:08:00.525Z,-1.19
2022-12-01T08:10:27.105Z,-1.17
2022-12-01T08:12:53.513Z,-1.11
2022-12-01T08:15:19.977Z,-0.99
2022-12-01T08:17:46.417Z,-1.00
2022-12-01T08:20:12.865Z,-0.96
2022-12-01T08:22:39.297Z,-0.95
2022-12-01T08:25:05.980Z,-0.93
2022-12-01T08:27:32.397Z,-0.90
2022-12-01T08:29:58.853Z,-0.81
2022-12-01T08:32:25.344Z,-0.83
2022-12-01T08:34:53.552Z,-0.70
2022-12-01T08:37:20.630Z,-0.69
2022-12-01T08:39:47.683Z,-0.70
2022-12-01T08:42:14.321Z,-0.68
2022-12-01T08:44:40.852Z,-0.63
2022-12-01T08:47:07.352Z,-0.60
2022-12-01T08:49:33.764Z,-0.53
2022-12-01T08:52:00.167Z,-0.47
2022-12-01T08:54:26.870Z,-0.45
2022-12-01T08:56:53.447Z,-0.42
2022-12-01T08:59:19.861Z,-0.41
2022-12-01T09:01:52.612Z,-0.37
2022-12-01T09:04:19.777Z,-0.35
2022-12-01T09:06:46.788Z,-0.37
2022-12-01T09:09:14.511Z,-0.38
2022-12-01T09:11:41.001Z,-0.38
2022-12-01T09:14:07.387Z,-0.29
2022-12-01T09:16:33.938Z,-0.27
2022-12-01T09:19:00.549Z,-0.26
2022-12-01T09:21:28.151Z,-0.29
2022-12-01T09:23:54.574Z,-0.27
2022-12-01T09:26:21.055Z,-0.28
2022-12-01T09:28:53.867Z,-0.28
2022-12-01T09:31:23.567Z,-0.26
2022-12-01T09:34:03.506Z,-0.24
2022-12-01T09:36:30.476Z,-0.16
2022-12-01T09:38:56.973Z,-0.14
2022-12-01T09:41:27.333Z,-0.18
2022-12-01T09:44:05.720Z,-0.22
2022-12-01T09:46:34.032Z,-0.24
2022-12-01T09:49:01.158Z,-0.24
2022-12-01T09:51:28.345Z,-0.19
2022-12-01T09:53:56.637Z,-0.18
2022-12-01T09:56:23.903Z,-0.13
2022-12-01T09:58:51.942Z,-0.13
2022-12-01T10:01:21.698Z,-0.14
2022-12-01T10:03:53.137Z,-0.19
2022-12-01T10:06:29.169Z,-0.23
2022-12-01T10:09:14.530Z,-0.25
2022-12-01T10:11:41.238Z,-0.20
2022-12-01T10:14:20.325Z,-0.25
2022-12-01T10:16:49.852Z,-0.25
2022-12-01T10:19:22.456Z,-0.14
2022-12-01T10:21:57.046Z,-0.09
2022-12-01T10:24:42.153Z,0.06
2022-12-01T10:27:17.577Z,0.04
2022-12-01T10:29:48.233Z,0.02
2022-12-01T10:32:17.780Z,0.04
2022-12-01T10:34:46.659Z,0.13
2022-12-01T10:37:24.748Z,0.17
2022-12-01T10:39:52.514Z,0.22
2022-12-01T10:42:34.298Z,0.24
2022-12-01T10:45:01.182Z,0.19
2022-12-01T10:47:28.950Z,0.20
2022-12-01T10:49:56.142Z,0.17
2022-12-01T10:52:31.677Z,0.22
2022-12-01T10:54:58.265Z,0.36
2022-12-01T10:57:24.670Z,0.44
2022-12-01T11:00:01.146Z,0.43
2022-12-01T11:02:28.394Z,0.41
2022-12-01T11:04:55.713Z,0.39
2022-12-01T11:07:23.334Z,0.37
2022-12-01T11:09:57.179Z,0.40
2022-12-01T11:12:23.625Z,0.45
2022-12-01T11:14:51.469Z,0.43
2022-12-01T11:17:35.181Z,0.46
2022-12-01T11:20:25.508Z,0.56
2022-12-01T11:22:52.207Z,0.59
2022-12-01T11:25:19.345Z,0.60
2022-12-01T11:27:57.858Z,0.61
2022-12-01T11:30:25.106Z,0.56
2022-12-01T11:33:00.836Z,0.64
2022-12-01T11:35:32.209Z,0.64
2022-12-01T11:38:29.401Z,0.60
2022-12-01T11:40:52.675Z,0.66
2022-12-01T11:43:23.997Z,0.68
2022-12-01T11:45:50.455Z,0.57
2022-12-01T11:48:27.154Z,0.58
2022-12-01T11:51:00.528Z,0.65
2022-12-01T11:53:28.045Z,0.59
2022-12-01T11:56:13.916Z,0.54
2022-12-01T11:58:40.684Z,0.52
2022-12-01T12:01:33.724Z,0.58
2022-12-01T12:04:00.200Z,0.59
2022-12-01T12:06:40.049Z,0.61
2022-12-01T12:09:21.549Z,0.62
2022-12-01T12:11:51.425Z,0.66
2022-12-01T12:14:36.781Z,0.70
2022-12-01T12:17:14.512Z,0.74
2022-12-01T12:20:08.566Z,0.71
2022-12-01T12:22:36.038Z,0.76
2022-12-01T12:25:05.917Z,0.76
2022-12-01T12:27:35.385Z,0.87
2022-12-01T12:30:21.828Z,0.89
2022-12-01T12:32:57.040Z,0.88
2022-12-01T12:35:26.631Z,0.88
2022-12-01T12:37:53.040Z,0.82
2022-12-01T12:40:19.510Z,0.88
2022-12-01T12:42:49.238Z,0.91
2022-12-01T12:45:34.400Z,0.87
2022-12-01T12:48:19.815Z,0.85
2022-12-01T12:51:09.519Z,0.87
2022-12-01T12:53:39.257Z,0.93
2022-12-01T12:56:06.573Z,0.87
2022-12-01T12:58:36.808Z,0.86
2022-12-01T13:01:11.164Z,0.82
2022-12-01T13:03:49.580Z,0.80
2022-12-01T13:06:18.385Z,0.79
2022-12-01T13:08:49.105Z,0.90
2022-12-01T13:11:16.674Z,0.95
2022-12-01T13:13:51.568Z,1.01
2022-12-01T13:16:22.971Z,1.01
2022-12-01T13:18:57.429Z,0.91
2022-12-01T13:21:24.229Z,0.81
2022-12-01T13:23:51.135Z,0.73
2022-12-01T13:26:18.053Z,0.75
2022-12-01T13:28:45.953Z,0.71
2022-12-01T13:31:16.043Z,0.65
2022-12-01T13:33:53.806Z,0.57
2022-12-01T13:36:45.828Z,0.60
2022-12-01T13:39:07.630Z,0.59
2022-12-01T13:41:40.074Z,0.62
2022-12-01T13:44:26.284Z,0.54
2022-12-01T13:46:52.990Z,0.46
2022-12-01T13:49:35.206Z,0.45
2022-12-01T13:52:20.522Z,0.44
2022-12-01T13:55:10.150Z,0.51
2022-12-01T13:57:36.565Z,0.41
2022-12-01T14:00:12.529Z,0.39
2022-12-01T14:02:39.215Z,0.36
2022-12-01T14:05:24.605Z,0.39
2022-12-01T14:07:51.618Z,0.31
2022-12-01T14:10:25.653Z,0.24
2022-12-01T14:12:52.501Z,0.23
2022-12-01T14:15:29.293Z,0.24
2022-12-01T14:18:08.050Z,0.12
2022-12-01T14:20:35.856Z,0.09
2022-12-01T14:23:24.291Z,0.05
2022-12-01T14:25:58.180Z,0.07
2022-12-01T14:28:45.004Z,0.08
2022-12-01T14:31:11.758Z,0.08
2022-12-01T14:33:57.005Z,0.07
2022-12-01T14:36:23.450Z,0.00
2022-12-01T14:38:50.185Z,0.03
2022-12-01T14:41:26.248Z,0.07
2022-12-01T14:44:06.031Z,0.06
2022-12-01T14:46:40.623Z,0.06
2022-12-01T14:49:10.018Z,0.03
2022-12-01T14:51:36.411Z,-0.05
2022-12-01T14:54:04.369Z,-0.03
2022-12-01T14:56:30.790Z,-0.05
2022-12-01T14:58:58.124Z,0.00
2022-12-01T15:01:25.805Z,0.00
2022-12-01T15:03:54.489Z,-0.08
2022-12-01T15:06:21.836Z,-0.07
2022-12-01T15:09:31.585Z,-0.07
2022-12-01T15:11:56.257Z,-0.13
2022-12-01T15:14:38.583Z,-0.14
2022-12-01T15:17:05.753Z,-0.09
2022-12-01T15:19:34.602Z,-0.11
2022-12-01T15:22:04.858Z,-0.12
2022-12-01T15:24:31.305Z,-0.08
2022-12-01T15:27:03.478Z,-0.13
2022-12-01T15:29:31.705Z,-0.10
2022-12-01T15:32:02.200Z,-0.09
2022-12-01T15:34:30.637Z,-0.07
2022-12-01T15:36:57.392Z,0.01
2022-12-01T15:39:26.450Z,-0.01
2022-12-01T15:41:54.279Z,0.02
2022-12-01T15:44:28.292Z,0.00
2022-12-01T15:46:54.700Z,-0.05
2022-12-01T15:49:27.358Z,-0.08
2022-12-01T15:51:53.885Z,-0.09
2022-12-01T15:54:24.546Z,-0.06
2022-12-01T15:56:51.771Z,-0.04
2022-12-01T15:59:18.233Z,0.02
2022-12-01T16:01:44.780Z,0.05
2022-12-01T16:04:24.983Z,0.01
2022-12-01T16:07:01.248Z,0.05
2022-12-01T16:09:33.833Z,0.01
2022-12-01T16:12:04.251Z,0.06
2022-12-01T16:14:32.067Z,0.05
2022-12-01T16:16:58.652Z,0.12
2022-12-01T16:19:26.614Z,0.08
2022-12-01T16:21:57.395Z,0.08
2022-12-01T16:24:26.720Z,0.14
2022-12-01T16:26:53.875Z,0.09
2022-12-01T16:29:24.048Z,0.05
2022-12-01T16:32:19.735Z,-0.01
2022-12-01T16:34:46.177Z,-0.04
2022-12-01T16:37:23.380Z,-0.02
2022-12-01T16:39:50.058Z,-0.01
2022-12-01T16:42:17.497Z,0.06
2022-12-01T16:44:48.522Z,-0.01
2022-12-01T16:47:16.716Z,-0.04
2022-12-01T16:49:43.183Z,-0.05
2022-12-01T16:52:36.474Z,0.01
2022-12-01T16:54:56.102Z,0.00
2022-12-01T16:57:22.501Z,-0.04
2022-12-01T16:59:49.069Z,-0.06
2022-12-01T17:02:15.724Z,-0.11
2022-12-01T17:04:42.358Z,-0.13
2022-12-01T17:07:08.869Z,-0.13
2022-12-01T17:09:37.453Z,-0.12
2022-12-01T17:12:12.299Z,-0.13
2022-12-01T17:14:38.804Z,-0.12
2022-12-01T17:17:05.317Z,-0.12
2022-12-01T17:19:31.817Z,-0.02
2022-12-01T17:22:00.275Z,-0.04
2022-12-01T17:24:26.719Z,-0.02
2022-12-01T17:26:53.195Z,0.07
2022-12-01T17:29:19.731Z,0.04
2022-12-01T17:31:46.154Z,0.04
2022-12-01T17:34:12.592Z,-0.03
2022-12-01T17:36:39.064Z,-0.05
2022-12-01T17:39:05.771Z,-0.06
2022-12-01T17:41:35.889Z,-0.04
2022-12-01T17:44:05.526Z,-0.04
2022-12-01T17:46:32.259Z,0.15
2022-12-01T17:48:59.319Z,0.11
2022-12-01T17:51:26.904Z,0.05
2022-12-01T17:53:54.023Z,0.05
2022-12-01T17:56:20.632Z,0.09
2022-12-01T17:58:49.070Z,0.20
2022-12-01T18:01:17.894Z,0.20
2022-12-01T18:03:44.543Z,0.14
2022-12-01T18:06:11.075Z,0.08
2022-12-01T18:08:37.638Z,0.03
2022-12-01T18:11:07.781Z,0.02
2022-12-01T18:13:41.256Z,-0.01
2022-12-01T18:16:14.923Z,-0.06
2022-12-01T18:18:41.503Z,-0.06
2022-12-01T18:21:08.915Z,-0.07
2022-12-01T18:23:35.505Z,-0.04
2022-12-01T18:26:08.578Z,-0.03
2022-12-01T18:28:37.299Z,0.05
2022-12-01T18:31:07.545Z,0.02
2022-12-01T18:33:34.286Z,-0.02
2022-12-01T18:36:00.805Z,-0.07
2022-12-01T18:38:28.443Z,0.01
2022-12-01T18:40:59.081Z,0.02
2022-12-01T18:43:26.317Z,-0.09
2022-12-01T18:45:52.949Z,-0.11
2022-12-01T18:48:19.389Z,-0.16
2022-12-01T18:50:45.842Z,-0.21
2022-12-01T18:53:12.369Z,-0.21
2022-12-01T18:55:38.804Z,-0.17
2022-12-01T18:58:05.448Z,-0.16
2022-12-01T19:00:31.990Z,-0.17
2022-12-01T19:02:58.517Z,-0.15
2022-12-01T19:05:25.145Z,-0.15
2022-12-01T19:07:53.119Z,-0.12
2022-12-01T19:10:19.776Z,-0.06
2022-12-01T19:12:46.199Z,-0.07
2022-12-01T19:15:12.630Z,-0.06
2022-12-01T19:17:39.166Z,-0.08
2022-12-01T19:20:05.956Z,-0.10
2022-12-01T19:22:32.565Z,-0.10
2022-12-01T19:24:59.173Z,-0.09
2022-12-01T19:27:25.671Z,-0.02
2022-12-01T19:29:52.545Z,0.12
2022-12-01T19:32:19.711Z,0.05
2022-12-01T19:34:46.133Z,0.03
2022-12-01T19:37:12.866Z,0.07
2022-12-01T19:39:39.571Z,0.06
2022-12-01T19:42:05.981Z,0.03
2022-12-01T19:44:32.592Z,0.02
2022-12-01T19:46:59.023Z,0.03
2022-12-01T19:49:25.472Z,0.01
2022-12-01T19:51:51.952Z,-0.02
2022-12-01T19:54:19.053Z,-0.06
2022-12-01T19:56:53.634Z,-0.06
2022-12-01T19:59:20.156Z,-0.04
2022-12-01T20:01:46.709Z,0.01
2022-12-01T20:04:13.382Z,-0.01
2022-12-01T20:06:39.915Z,-0.05
2022-12-01T20:09:06.706Z,-0.07
2022-12-01T20:11:35.233Z,-0.10
2022-12-01T20:14:02.226Z,-0.09
2022-12-01T20:16:28.919Z,-0.05
2022-12-01T20:18:55.441Z,-0.05
2022-12-01T20:21:23.057Z,-0.08
2022-12-01T20:23:50.344Z,-0.12
2022-12-01T20:26:17.503Z,-0.15
2022-12-01T20:28:44.316Z,-0.08
2022-12-01T20:31:11.846Z,-0.07
2022-12-01T20:33:39.107Z,-0.01
2022-12-01T20:36:06.018Z,-0.06
2022-12-01T20:38:32.427Z,-0.05
2022-12-01T20:40:58.894Z,-0.07
2022-12-01T20:43:25.376Z,-0.01
2022-12-01T20:45:51.871Z,-0.01
2022-12-01T20:48:18.500Z,0.05
2022-12-01T20:50:47.449Z,-0.03
2022-12-01T20:53:14.066Z,-0.06
2022-12-01T20:55:40.629Z,-0.02
2022-12-01T20:58:10.036Z,-0.06
2022-12-01T21:00:40.222Z,-0.10
2022-12-01T21:03:06.726Z,-0.11
2022-12-01T21:05:33.291Z,-0.09
2022-12-01T21:08:00.474Z,-0.05
2022-12-01T21:10:27.183Z,-0.01
2022-12-01T21:13:12.851Z,0.04
2022-12-01T21:15:50.027Z,-0.01
2022-12-01T21:18:22.824Z,-0.07
2022-12-01T21:20:49.733Z,-0.11
2022-12-01T21:23:16.490Z,-0.13
2022-12-01T21:25:42.981Z,-0.18
2022-12-01T21:28:19.092Z,-0.22
2022-12-01T21:30:48.628Z,-0.19
2022-12-01T21:33:15.038Z,-0.21
2022-12-01T21:35:41.483Z,-0.12
2022-12-01T21:38:09.918Z,-0.15
2022-12-01T21:40:36.332Z,-0.17
2022-12-01T21:43:17.461Z,-0.16
2022-12-01T21:45:44.226Z,-0.06
2022-12-01T21:48:14.869Z,-0.02
2022-12-01T21:50:41.438Z,-0.01
2022-12-01T21:53:14.526Z,0.02
2022-12-01T21:55:42.152Z,-0.06
2022-12-01T21:58:30.291Z,-0.09
2022-12-01T22:00:57.866Z,-0.12
2022-12-01T22:03:24.317Z,-0.12
2022-12-01T22:06:13.704Z,-0.12
2022-12-01T22:08:38.694Z,-0.11
2022-12-01T22:11:05.391Z,-0.08
2022-12-01T22:13:38.001Z,-0.02
2022-12-01T22:16:04.544Z,-0.01
2022-12-01T22:18:37.702Z,-0.03
2022-12-01T22:21:22.637Z,-0.07
2022-12-01T22:23:49.322Z,-0.07
2022-12-01T22:26:19.651Z,-0.09
2022-12-01T22:28:46.673Z,-0.05
2022-12-01T22:31:14.841Z,-0.05
2022-12-01T22:33:41.310Z,-0.07
2022-12-01T22:36:23.544Z,-0.05
2022-12-01T22:38:50.043Z,-0.02
2022-12-01T22:41:17.044Z,-0.01
2022-12-01T22:43:43.482Z,-0.02
2022-12-01T22:46:13.166Z,0.02
2022-12-01T22:48:40.529Z,0.07
2022-12-01T22:51:20.082Z,0.08
2022-12-01T22:53:46.545Z,0.07
2022-12-01T22:56:19.142Z,0.06
2022-12-01T22:58:45.572Z,0.03
2022-12-01T23:01:28.478Z,0.03
2022-12-01T23:04:14.256Z,0.01
2022-12-01T23:06:44.045Z,-0.05
2022-12-01T23:09:13.837Z,-0.05
2022-12-01T23:11:42.640Z,-0.05
2022-12-01T23:14:12.459Z,-0.06
2022-12-01T23:16:39.417Z,-0.05
2022-12-01T23:19:05.878Z,-0.15
2022-12-01T23:21:32.313Z,-0.22
2022-12-01T23:23:58.784Z,-0.24
2022-12-01T23:26:25.368Z,-0.22
2022-12-01T23:28:51.787Z,-0.17
2022-12-01T23:31:18.404Z,-0.13
2022-12-01T23:33:45.490Z,-0.14
2022-12-01T23:36:12.959Z,-0.12
2022-12-01T23:38:40.112Z,-0.12
2022-12-01T23:41:07.292Z,-0.06
2022-12-01T23:43:34.889Z,-0.03
2022-12-01T23:46:10.030Z,-0.10
2022-12-01T23:48:37.762Z,-0.14
2022-12-01T23:51:04.483Z,-0.15
2022-12-01T23:53:32.252Z,-0.14
2022-12-01T23:56:10.202Z,-0.11
2022-12-01T23:58:36.631Z,-0.11
